createdAt,value
2023-05-13T00:00:02.443Z,14.77
2023-05-13T00:03:04.507Z,14.63
2023-05-13T00:06:07.229Z,14.73
2023-05-13T00:09:10.152Z,15.00
2023-05-13T00:12:12.070Z,15.97
2023-05-13T00:15:14.302Z,16.33
2023-05-13T00:18:16.786Z,15.70
2023-05-13T00:21:18.785Z,16.13
2023-05-13T00:24:21.125Z,15.40
2023-05-13T00:27:23.048Z,14.77
2023-05-13T00:30:25.020Z,15.20
2023-05-13T00:33:26.944Z,16.97
2023-05-13T00:36:29.373Z,18.20
2023-05-13T00:39:31.301Z,19.63
2023-05-13T00:42:33.256Z,18.23
2023-05-13T00:45:37.759Z,18.03
2023-05-13T00:48:39.825Z,17.27
2023-05-13T00:51:41.754Z,18.03
2023-05-13T00:54:43.991Z,17.67
2023-05-13T00:57:45.912Z,17.70
2023-05-13T01:01:12.045Z,17.30
2023-05-13T01:04:38.769Z,16.97
2023-05-13T01:07:47.114Z,17.07
2023-05-13T01:10:55.925Z,17.53
2023-05-13T01:14:20.006Z,17.67
2023-05-13T01:17:35.570Z,17.27
2023-05-13T01:20:40.603Z,16.23
2023-05-13T01:23:42.598Z,16.50
2023-05-13T01:26:44.707Z,16.50
2023-05-13T01:29:48.530Z,16.50
2023-05-13T01:32:51.093Z,15.57
2023-05-13T01:35:54.426Z,16.87
2023-05-13T01:38:56.660Z,15.67
2023-05-13T01:41:58.916Z,15.77
2023-05-13T01:45:00.983Z,15.80
2023-05-13T01:48:03.100Z,15.93
2023-05-13T01:51:06.253Z,15.87
2023-05-13T01:54:08.243Z,16.17
2023-05-13T01:57:10.262Z,16.97
2023-05-13T02:00:12.993Z,17.37
2023-05-13T02:03:15.048Z,17.40
2023-05-13T02:06:17.222Z,17.87
2023-05-13T02:09:19.176Z,17.20
2023-05-13T02:12:21.069Z,17.63
2023-05-13T02:15:23.427Z,15.93
2023-05-13T02:18:25.359Z,15.47
2023-05-13T02:21:27.964Z,16.10
2023-05-13T02:24:31.268Z,15.97
2023-05-13T02:27:34.388Z,14.57
2023-05-13T02:30:36.420Z,16.03
2023-05-13T02:33:38.373Z,14.77
2023-05-13T02:36:40.484Z,15.47
2023-05-13T02:39:42.479Z,15.73
2023-05-13T02:42:44.356Z,14.90
2023-05-13T02:45:47.356Z,16.97
2023-05-13T02:48:49.271Z,15.93
2023-05-13T02:51:51.198Z,15.67
2023-05-13T02:54:53.181Z,15.90
2023-05-13T02:57:57.077Z,17.07
2023-05-13T03:00:59.097Z,16.27
2023-05-13T03:04:01.269Z,16.90
2023-05-13T03:07:03.508Z,16.73
2023-05-13T03:10:06.941Z,14.87
2023-05-13T03:13:09.206Z,16.67
2023-05-13T03:16:11.535Z,16.60
2023-05-13T03:19:13.738Z,18.83
2023-05-13T03:22:15.748Z,17.73
2023-05-13T03:25:17.941Z,15.63
2023-05-13T03:28:19.898Z,17.80
2023-05-13T03:31:22.199Z,17.10
2023-05-13T03:34:24.109Z,16.20
2023-05-13T03:37:26.860Z,15.93
2023-05-13T03:40:28.810Z,16.80
2023-05-13T03:43:30.920Z,16.70
2023-05-13T03:46:34.260Z,15.97
2023-05-13T03:49:36.271Z,14.77
2023-05-13T03:52:38.221Z,13.60
2023-05-13T03:55:40.288Z,14.63
2023-05-13T03:58:42.348Z,14.40
2023-05-13T04:01:44.417Z,14.10
2023-05-13T04:04:46.518Z,13.87
2023-05-13T04:07:48.515Z,14.53
2023-05-13T04:10:50.563Z,13.57
2023-05-13T04:13:52.480Z,13.27
2023-05-13T04:16:54.985Z,14.17
2023-05-13T04:19:56.877Z,13.27
2023-05-13T04:22:59.038Z,13.67
2023-05-13T04:26:01.054Z,12.33
2023-05-13T04:29:02.995Z,13.07
2023-05-13T04:32:05.510Z,12.03
2023-05-13T04:35:08.399Z,12.77
2023-05-13T04:38:10.344Z,12.83
2023-05-13T04:41:12.353Z,13.67
2023-05-13T04:44:14.266Z,13.17
2023-05-13T04:47:16.264Z,12.93
2023-05-13T04:50:18.398Z,13.20
2023-05-13T04:53:21.433Z,12.70
2023-05-13T04:56:23.654Z,12.73
2023-05-13T04:59:25.912Z,13.33
2023-05-13T05:02:30.245Z,13.00
2023-05-13T05:05:32.206Z,13.13
2023-05-13T05:08:34.243Z,13.90
2023-05-13T05:11:36.083Z,13.17
2023-05-13T05:14:38.415Z,11.37
2023-05-13T05:17:40.403Z,12.60
2023-05-13T05:20:42.449Z,12.63
2023-05-13T05:23:44.458Z,10.97
2023-05-13T05:26:46.529Z,10.63
2023-05-13T05:29:48.486Z,11.50
2023-05-13T05:32:50.488Z,10.77
2023-05-13T05:35:52.420Z,10.23
2023-05-13T05:38:54.421Z,10.43
2023-05-13T05:41:56.346Z,10.77
2023-05-13T05:44:58.294Z,12.30
2023-05-13T05:48:00.387Z,10.23
2023-05-13T05:51:03.131Z,11.27
2023-05-13T05:54:05.106Z,9.90
2023-05-13T05:57:07.017Z,11.43
2023-05-13T06:00:18.315Z,10.10
2023-05-13T06:03:21.662Z,9.83
2023-05-13T06:06:23.704Z,9.10
2023-05-13T06:09:25.909Z,8.57
2023-05-13T06:12:27.851Z,9.50
2023-05-13T06:15:30.385Z,8.90
2023-05-13T06:18:32.322Z,8.73
2023-05-13T06:21:34.939Z,8.50
2023-05-13T06:24:37.787Z,7.90
2023-05-13T06:27:39.834Z,8.23
2023-05-13T06:30:41.798Z,8.07
2023-05-13T06:33:43.710Z,8.13
2023-05-13T06:36:45.587Z,7.90
2023-05-13T06:39:48.168Z,8.57
2023-05-13T06:42:50.089Z,7.83
2023-05-13T06:45:52.016Z,8.77
2023-05-13T06:48:55.659Z,9.00
2023-05-13T06:51:58.111Z,9.30
2023-05-13T06:55:00.254Z,8.07
2023-05-13T06:58:02.215Z,8.97
2023-05-13T07:01:04.297Z,9.67
2023-05-13T07:04:07.028Z,8.53
2023-05-13T07:07:09.423Z,8.30
2023-05-13T07:10:11.668Z,8.20
2023-05-13T07:13:13.538Z,8.17
2023-05-13T07:16:15.442Z,8.73
2023-05-13T07:19:17.385Z,9.57
2023-05-13T07:22:19.846Z,9.00
2023-05-13T07:25:21.839Z,9.53
2023-05-13T07:28:24.126Z,8.13
2023-05-13T07:31:26.203Z,9.07
2023-05-13T07:34:28.687Z,8.50
2023-05-13T07:37:30.548Z,7.80
2023-05-13T07:40:32.579Z,7.73
2023-05-13T07:43:35.571Z,7.87
2023-05-13T07:46:37.926Z,7.50
2023-05-13T07:49:40.415Z,7.93
2023-05-13T07:52:42.501Z,7.90
2023-05-13T07:55:45.089Z,8.03
2023-05-13T07:58:47.112Z,7.80
2023-05-13T08:01:49.212Z,7.93
2023-05-13T08:04:51.278Z,7.60
2023-05-13T08:07:54.018Z,8.20
2023-05-13T08:10:55.934Z,7.93
2023-05-13T08:13:57.990Z,7.50
2023-05-13T08:16:59.993Z,7.33
2023-05-13T08:20:03.777Z,8.20
2023-05-13T08:23:06.473Z,7.57
2023-05-13T08:26:08.881Z,8.33
2023-05-13T08:29:13.288Z,8.30
2023-05-13T08:32:15.739Z,7.67
2023-05-13T08:35:17.766Z,7.80
2023-05-13T08:38:19.716Z,8.00
2023-05-13T08:41:23.115Z,7.27
2023-05-13T08:44:29.299Z,7.07
2023-05-13T08:47:53.254Z,7.00
2023-05-13T08:50:55.490Z,6.20
2023-05-13T08:53:57.622Z,5.70
2023-05-13T08:56:59.604Z,6.17
2023-05-13T09:00:01.583Z,6.07
2023-05-13T09:03:04.141Z,5.23
2023-05-13T09:06:06.250Z,5.60
2023-05-13T09:09:08.418Z,4.80
2023-05-13T09:12:10.893Z,5.20
2023-05-13T09:15:24.778Z,5.20
2023-05-13T09:18:31.415Z,4.67
2023-05-13T09:21:38.385Z,4.30
2023-05-13T09:24:41.772Z,4.93
2023-05-13T09:27:47.621Z,4.40
2023-05-13T09:30:56.167Z,5.00
2023-05-13T09:33:58.280Z,4.63
2023-05-13T09:37:05.823Z,4.87
2023-05-13T09:40:12.726Z,5.00
2023-05-13T09:43:15.910Z,5.17
2023-05-13T09:46:17.950Z,4.43
2023-05-13T09:49:28.836Z,4.53
2023-05-13T09:52:32.605Z,4.43
2023-05-13T09:55:34.507Z,4.27
2023-05-13T09:58:37.000Z,4.47
2023-05-13T10:01:39.709Z,4.93
2023-05-13T10:04:42.722Z,4.17
2023-05-13T10:07:44.704Z,4.13
2023-05-13T10:10:49.105Z,4.80
2023-05-13T10:14:05.847Z,4.03
2023-05-13T10:17:08.565Z,4.07
2023-05-13T10:20:10.971Z,4.00
2023-05-13T10:23:12.978Z,4.17
2023-05-13T10:26:15.059Z,3.77
2023-05-13T10:29:17.320Z,3.33
2023-05-13T10:32:19.386Z,3.37
2023-05-13T10:35:24.446Z,3.37
2023-05-13T10:38:44.559Z,3.47
2023-05-13T10:42:24.147Z,3.97
2023-05-13T10:45:27.666Z,3.90
2023-05-13T10:48:43.841Z,3.70
2023-05-13T10:51:49.581Z,3.70
2023-05-13T10:55:02.148Z,3.50
2023-05-13T10:58:12.514Z,3.50
2023-05-13T11:01:19.878Z,3.00
2023-05-13T11:04:22.406Z,3.00
2023-05-13T11:07:25.064Z,3.20
2023-05-13T11:10:32.046Z,3.20
2023-05-13T11:13:39.551Z,3.93
2023-05-13T11:16:47.099Z,4.00
2023-05-13T11:19:52.390Z,3.87
2023-05-13T11:22:54.296Z,3.70
2023-05-13T11:26:15.173Z,3.87
2023-05-13T11:29:38.996Z,3.60
2023-05-13T11:32:56.499Z,3.90
2023-05-13T11:35:58.976Z,3.90
2023-05-13T11:39:08.969Z,4.33
2023-05-13T11:42:11.531Z,3.67
2023-05-13T11:45:14.091Z,3.03
2023-05-13T11:48:24.090Z,2.93
2023-05-13T11:51:27.039Z,2.47
2023-05-13T11:54:29.177Z,3.10
2023-05-13T11:57:35.215Z,2.87
2023-05-13T12:00:37.191Z,3.00
2023-05-13T12:03:39.390Z,3.33
2023-05-13T12:06:48.352Z,2.53
2023-05-13T12:09:52.040Z,3.30
2023-05-13T12:12:54.541Z,3.07
2023-05-13T12:15:56.703Z,2.60
2023-05-13T12:19:06.644Z,2.70
2023-05-13T12:22:10.054Z,2.67
2023-05-13T12:25:33.702Z,2.80
2023-05-13T12:28:35.727Z,3.03
2023-05-13T12:31:37.650Z,3.10
2023-05-13T12:34:40.387Z,3.37
2023-05-13T12:37:42.989Z,2.90
2023-05-13T12:40:46.469Z,3.13
2023-05-13T12:43:48.499Z,3.00
2023-05-13T12:46:51.984Z,2.60
2023-05-13T12:50:06.048Z,2.90
2023-05-13T12:53:08.161Z,2.70
2023-05-13T12:56:10.643Z,2.50
2023-05-13T12:59:13.698Z,2.70
2023-05-13T13:02:15.720Z,2.53
2023-05-13T13:05:17.780Z,2.63
2023-05-13T13:08:19.841Z,2.20
2023-05-13T13:11:21.904Z,2.60
2023-05-13T13:14:26.884Z,2.60
2023-05-13T13:17:29.205Z,2.27
2023-05-13T13:20:31.372Z,2.40
2023-05-13T13:23:34.265Z,2.70
2023-05-13T13:26:36.376Z,2.00
2023-05-13T13:29:39.113Z,2.23
2023-05-13T13:32:41.070Z,1.90
2023-05-13T13:35:44.780Z,2.17
2023-05-13T13:38:46.672Z,1.80
2023-05-13T13:41:49.288Z,1.70
2023-05-13T13:44:51.180Z,1.30
2023-05-13T13:47:53.366Z,1.45
2023-05-13T13:50:55.360Z,1.75
2023-05-13T13:53:57.334Z,1.60
2023-05-13T13:56:59.282Z,1.77
2023-05-13T14:00:01.551Z,1.43
2023-05-13T14:03:04.045Z,1.50
2023-05-13T14:06:06.171Z,1.43
2023-05-13T14:09:08.815Z,1.23
2023-05-13T14:12:11.208Z,1.33
2023-05-13T14:15:13.157Z,1.53
2023-05-13T14:18:15.219Z,1.25
2023-05-13T14:21:17.540Z,1.02
2023-05-13T14:24:19.433Z,1.17
2023-05-13T14:27:21.986Z,0.95
2023-05-13T14:30:24.371Z,1.10
2023-05-13T14:33:26.553Z,0.98
2023-05-13T14:36:28.588Z,0.90
2023-05-13T14:39:31.955Z,1.27
2023-05-13T14:42:33.887Z,1.27
2023-05-13T14:45:36.430Z,1.05
2023-05-13T14:48:38.416Z,1.00
2023-05-13T14:51:40.742Z,0.90
2023-05-13T14:54:42.687Z,1.00
2023-05-13T14:57:45.071Z,1.35
2023-05-13T15:00:47.202Z,1.80
2023-05-13T15:03:49.481Z,2.40
2023-05-13T15:06:51.486Z,3.40
2023-05-13T15:09:53.426Z,3.43
2023-05-13T15:12:56.145Z,3.07
2023-05-13T15:15:59.024Z,3.40
2023-05-13T15:19:01.014Z,2.73
2023-05-13T15:22:03.065Z,3.23
2023-05-13T15:25:06.017Z,3.23
2023-05-13T15:28:07.977Z,2.70
2023-05-13T15:31:10.034Z,2.80
2023-05-13T15:34:12.056Z,2.37
2023-05-13T15:37:14.565Z,2.37
2023-05-13T15:40:16.700Z,2.17
2023-05-13T15:43:19.062Z,2.10
2023-05-13T15:46:22.120Z,2.53
2023-05-13T15:49:24.236Z,3.33
2023-05-13T15:52:26.666Z,2.93
2023-05-13T15:55:29.336Z,3.30
2023-05-13T15:58:31.431Z,3.40
2023-05-13T16:01:33.538Z,4.27
2023-05-13T16:04:35.909Z,4.00
2023-05-13T16:07:38.640Z,4.13
2023-05-13T16:10:41.304Z,3.30
2023-05-13T16:13:43.240Z,3.33
2023-05-13T16:16:46.199Z,3.30
2023-05-13T16:19:50.690Z,3.07
2023-05-13T16:22:52.767Z,3.13
2023-05-13T16:25:55.136Z,3.40
2023-05-13T16:28:57.066Z,3.70
2023-05-13T16:31:59.031Z,3.20
2023-05-13T16:35:04.346Z,3.73
2023-05-13T16:38:06.638Z,3.33
2023-05-13T16:41:08.669Z,3.77
2023-05-13T16:44:11.221Z,4.30
2023-05-13T16:47:13.382Z,4.43
2023-05-13T16:50:15.518Z,4.43
2023-05-13T16:53:17.913Z,4.67
2023-05-13T16:56:30.446Z,4.50
2023-05-13T16:59:34.272Z,4.20
2023-05-13T17:02:36.359Z,4.70
2023-05-13T17:05:38.587Z,4.10
2023-05-13T17:08:40.671Z,3.53
2023-05-13T17:11:42.905Z,3.77
2023-05-13T17:14:44.881Z,4.37
2023-05-13T17:17:46.914Z,4.10
2023-05-13T17:20:49.071Z,3.27
2023-05-13T17:23:51.046Z,3.50
2023-05-13T17:26:53.469Z,3.80
2023-05-13T17:29:55.442Z,3.50
2023-05-13T17:32:57.422Z,3.60
2023-05-13T17:35:59.692Z,3.97
2023-05-13T17:39:04.950Z,3.93
2023-05-13T17:42:07.074Z,3.87
2023-05-13T17:45:09.652Z,3.70
2023-05-13T17:48:12.409Z,2.63
2023-05-13T17:51:14.648Z,2.20
2023-05-13T17:54:17.036Z,2.00
2023-05-13T17:57:19.039Z,1.27
2023-05-13T18:00:24.019Z,1.07
2023-05-13T18:03:27.042Z,1.17
2023-05-13T18:06:29.050Z,1.10
2023-05-13T18:09:31.294Z,1.67
2023-05-13T18:12:33.275Z,1.40
2023-05-13T18:15:35.820Z,1.60
2023-05-13T18:18:38.312Z,1.77
2023-05-13T18:21:40.600Z,1.93
2023-05-13T18:24:42.507Z,2.23
2023-05-13T18:27:45.264Z,2.20
2023-05-13T18:30:47.151Z,2.10
2023-05-13T18:33:49.234Z,2.27
2023-05-13T18:36:52.215Z,2.00
2023-05-13T18:39:54.191Z,2.17
2023-05-13T18:42:56.157Z,2.43
2023-05-13T18:45:58.468Z,2.10
2023-05-13T18:49:00.677Z,2.07
2023-05-13T18:52:06.528Z,2.60
2023-05-13T18:55:10.330Z,2.50
2023-05-13T18:58:13.013Z,3.70
2023-05-13T19:01:15.877Z,3.50
2023-05-13T19:04:19.299Z,4.00
2023-05-13T19:07:21.799Z,2.90
2023-05-13T19:10:24.140Z,2.13
2023-05-13T19:13:33.142Z,2.10
2023-05-13T19:16:42.036Z,2.60
2023-05-13T19:19:44.146Z,2.13
2023-05-13T19:22:46.111Z,1.53
2023-05-13T19:25:48.094Z,2.00
2023-05-13T19:28:50.555Z,2.00
2023-05-13T19:31:53.059Z,1.87
2023-05-13T19:34:55.053Z,1.83
2023-05-13T19:37:57.189Z,1.60
2023-05-13T19:41:00.184Z,1.83
2023-05-13T19:44:02.119Z,3.10
2023-05-13T19:47:04.640Z,2.57
2023-05-13T19:50:07.436Z,1.97
2023-05-13T19:53:09.967Z,1.87
2023-05-13T19:56:12.080Z,1.70
2023-05-13T19:59:14.083Z,2.10
2023-05-13T20:02:16.048Z,2.20
2023-05-13T20:05:18.339Z,1.90
2023-05-13T20:08:21.146Z,1.87
2023-05-13T20:11:24.081Z,2.30
2023-05-13T20:14:45.386Z,2.00
2023-05-13T20:17:47.997Z,2.20
2023-05-13T20:20:50.047Z,2.03
2023-05-13T20:23:52.588Z,2.97
2023-05-13T20:26:54.481Z,3.10
2023-05-13T20:29:57.716Z,4.50
2023-05-13T20:32:59.741Z,3.77
2023-05-13T20:36:02.106Z,2.90
2023-05-13T20:39:04.333Z,2.43
2023-05-13T20:42:07.227Z,2.43
2023-05-13T20:45:10.020Z,2.23
2023-05-13T20:48:14.145Z,2.10
2023-05-13T20:51:16.055Z,2.10
2023-05-13T20:54:18.086Z,1.90
2023-05-13T20:57:20.054Z,2.50
2023-05-13T21:00:22.814Z,2.20
2023-05-13T21:03:25.042Z,1.90
2023-05-13T21:06:27.785Z,2.00
2023-05-13T21:09:29.653Z,2.33
2023-05-13T21:12:32.014Z,2.73
2023-05-13T21:15:34.640Z,2.57
2023-05-13T21:18:36.703Z,2.20
2023-05-13T21:21:39.221Z,2.30
2023-05-13T21:24:41.207Z,2.00
2023-05-13T21:27:43.196Z,2.10
2023-05-13T21:30:45.852Z,1.80
2023-05-13T21:33:49.156Z,1.70
2023-05-13T21:36:52.986Z,1.70
2023-05-13T21:39:55.466Z,1.70
2023-05-13T21:42:57.456Z,2.10
2023-05-13T21:46:07.815Z,2.13
2023-05-13T21:49:12.900Z,2.40
2023-05-13T21:52:15.830Z,2.27
2023-05-13T21:55:18.057Z,2.80
2023-05-13T21:58:21.851Z,2.73
2023-05-13T22:01:25.792Z,2.43
2023-05-13T22:04:28.119Z,2.50
2023-05-13T22:07:30.022Z,1.80
2023-05-13T22:10:32.064Z,2.27
2023-05-13T22:13:34.064Z,2.23
2023-05-13T22:16:36.725Z,1.90
2023-05-13T22:19:38.843Z,2.10
2023-05-13T22:22:40.884Z,2.17
2023-05-13T22:25:42.836Z,2.30
2023-05-13T22:28:48.740Z,2.00
2023-05-13T22:31:52.065Z,2.10
2023-05-13T22:34:54.056Z,2.20
2023-05-13T22:37:55.988Z,2.10
2023-05-13T22:40:58.022Z,1.83
2023-05-13T22:43:59.987Z,1.93
2023-05-13T22:47:03.318Z,1.70
2023-05-13T22:50:06.061Z,2.07
2023-05-13T22:53:07.994Z,2.10
2023-05-13T22:56:10.060Z,2.30
2023-05-13T22:59:12.048Z,1.87
2023-05-13T23:02:14.128Z,1.80
2023-05-13T23:05:16.124Z,1.90
2023-05-13T23:08:18.360Z,2.00
2023-05-13T23:11:20.182Z,1.90
2023-05-13T23:14:22.191Z,1.67
2023-05-13T23:17:24.236Z,1.73
2023-05-13T23:20:26.339Z,2.00
2023-05-13T23:23:28.566Z,2.07
2023-05-13T23:26:31.314Z,1.60
2023-05-13T23:29:33.288Z,2.03
2023-05-13T23:32:35.261Z,1.70
2023-05-13T23:35:37.403Z,1.93
2023-05-13T23:38:39.357Z,2.10
2023-05-13T23:41:41.842Z,2.07
2023-05-13T23:44:43.896Z,2.50
2023-05-13T23:47:45.936Z,1.93
2023-05-13T23:50:48.009Z,2.03
2023-05-13T23:53:50.300Z,2.10
2023-05-13T23:56:52.215Z,2.00
2023-05-13T23:59:54.471Z,1.87
